Deering Airport Deering US
ICAO: PADE
IATA:
Category: Medium
Scheduled Services:

Elevation: 21 ft
TransAlt. 18000 ft.

Airport Communications:
ANCHORAGE CNTR:119.2
ASOS:135.5
CTAF:122.9

PADE Zoom In..

Runways:

(A) RW 02 length 3320 ft width 75 ft
---- / hdg 21

(B) RW 11 length 2660 ft width 75 ft
---- / hdg 110

(C) RW 20 length 3320 ft width 75 ft
---- / hdg 201

(D) RW 29 length 2660 ft width 75 ft
---- / hdg 290

Location; PADE
Day. 25 / Time. 09.53 Zulu
* Altimeter: 29.22
* Temperature: 00° c. 32°f.
* Wind from: 070° Speed 17 kn.
Dewpoint: -01° c.
Visibility: 10 Statute Miles.
Clouds: Clear (automated report).

PADE 250953Z AUTO 07017KT 10SM CLR 00/M01 A2922 RMK AO2 PK WND 11027/0924 UPB05E18 SLP894 P0000 T00001011 TSNO $


Wind From 070°
Speed 17 kn.

  YouTube Music Video
 
jpsmedia.com for Web Design  worldairports.se 2018   terms of use